sensor_id;sensor_type;location;lat;lon;timestamp;pressure;altitude;pressure_sealevel;temperature;humidity
23361;BME280;11852;50.082;18.554;2023-05-28T00:00:50;99056.5;;;13.13;59.72
23361;BME280;11852;50.082;18.554;2023-05-28T00:01:55;99050.5;;;13.17;59.6
23361;BME280;11852;50.082;18.554;2023-05-28T00:03:01;99049.5;;;13.18;59.75
23361;BME280;11852;50.082;18.554;2023-05-28T00:04:07;99046.0;;;13.18;59.74
23361;BME280;11852;50.082;18.554;2023-05-28T00:05:12;99044.49;;;13.19;59.63
23361;BME280;11852;50.082;18.554;2023-05-28T00:06:17;99045.49;;;13.21;59.69
23361;BME280;11852;50.082;18.554;2023-05-28T00:07:22;99044.5;;;13.21;59.47
23361;BME280;11852;50.082;18.554;2023-05-28T00:08:27;99044.0;;;13.2;59.43
23361;BME280;11852;50.082;18.554;2023-05-28T00:09:32;99045.0;;;13.2;59.57
23361;BME280;11852;50.082;18.554;2023-05-28T00:10:39;99046.0;;;13.13;60.02
23361;BME280;11852;50.082;18.554;2023-05-28T00:11:45;99051.0;;;13.1;59.97
23361;BME280;11852;50.082;18.554;2023-05-28T00:12:51;99048.5;;;13.13;59.86
23361;BME280;11852;50.082;18.554;2023-05-28T00:13:56;99047.0;;;13.12;59.89
23361;BME280;11852;50.082;18.554;2023-05-28T00:15:01;99046.0;;;13.09;59.81
23361;BME280;11852;50.082;18.554;2023-05-28T00:16:06;99043.5;;;13.05;59.88
23361;BME280;11852;50.082;18.554;2023-05-28T00:17:13;99042.51;;;12.99;60.05
23361;BME280;11852;50.082;18.554;2023-05-28T00:18:17;99046.5;;;13.02;59.92
23361;BME280;11852;50.082;18.554;2023-05-28T00:19:24;99047.0;;;13.02;59.79
23361;BME280;11852;50.082;18.554;2023-05-28T00:20:29;99045.5;;;13.02;59.84
23361;BME280;11852;50.082;18.554;2023-05-28T00:21:35;99041.0;;;13.01;59.65
23361;BME280;11852;50.082;18.554;2023-05-28T00:22:40;99040.0;;;12.98;59.56
23361;BME280;11852;50.082;18.554;2023-05-28T00:23:45;99039.5;;;12.94;59.69
23361;BME280;11852;50.082;18.554;2023-05-28T00:24:49;99038.0;;;12.94;59.65
23361;BME280;11852;50.082;18.554;2023-05-28T00:25:54;99038.0;;;12.94;59.59
23361;BME280;11852;50.082;18.554;2023-05-28T00:26:59;99038.5;;;12.99;59.65
23361;BME280;11852;50.082;18.554;2023-05-28T00:28:04;99037.0;;;12.93;59.66
23361;BME280;11852;50.082;18.554;2023-05-28T00:29:08;99035.0;;;12.94;59.62
23361;BME280;11852;50.082;18.554;2023-05-28T00:30:14;99032.49;;;12.95;59.53
23361;BME280;11852;50.082;18.554;2023-05-28T00:31:20;99034.0;;;12.91;59.56
23361;BME280;11852;50.082;18.554;2023-05-28T00:32:25;99031.99;;;12.93;59.69
23361;BME280;11852;50.082;18.554;2023-05-28T00:33:30;99034.5;;;12.94;59.71
23361;BME280;11852;50.082;18.554;2023-05-28T00:34:35;99034.5;;;12.91;59.92
23361;BME280;11852;50.082;18.554;2023-05-28T00:35:39;99034.0;;;12.9;59.88
23361;BME280;11852;50.082;18.554;2023-05-28T00:36:44;99032.99;;;12.87;59.67
23361;BME280;11852;50.082;18.554;2023-05-28T00:37:49;99030.5;;;12.88;59.64
23361;BME280;11852;50.082;18.554;2023-05-28T00:38:54;99032.0;;;12.84;59.54
23361;BME280;11852;50.082;18.554;2023-05-28T00:39:59;99030.5;;;12.83;59.51
23361;BME280;11852;50.082;18.554;2023-05-28T00:41:04;99030.51;;;12.83;59.47
23361;BME280;11852;50.082;18.554;2023-05-28T00:42:08;99028.5;;;12.78;59.59
23361;BME280;11852;50.082;18.554;2023-05-28T00:43:14;99029.0;;;12.82;59.44
23361;BME280;11852;50.082;18.554;2023-05-28T00:44:19;99027.0;;;12.84;59.47
23361;BME280;11852;50.082;18.554;2023-05-28T00:45:24;99026.0;;;12.84;59.28
23361;BME280;11852;50.082;18.554;2023-05-28T00:46:29;99025.5;;;12.86;59.21
23361;BME280;11852;50.082;18.554;2023-05-28T00:47:35;99027.5;;;12.77;59.25
23361;BME280;11852;50.082;18.554;2023-05-28T00:48:39;99026.0;;;12.78;59.28
23361;BME280;11852;50.082;18.554;2023-05-28T00:49:45;99025.5;;;12.78;59.19
23361;BME280;11852;50.082;18.554;2023-05-28T00:50:49;99025.0;;;12.76;59.03
23361;BME280;11852;50.082;18.554;2023-05-28T00:51:55;99024.5;;;12.77;59.22
23361;BME280;11852;50.082;18.554;2023-05-28T00:53:01;99022.0;;;12.74;59.47
23361;BME280;11852;50.082;18.554;2023-05-28T00:54:05;99019.99;;;12.68;59.74
23361;BME280;11852;50.082;18.554;2023-05-28T00:55:14;99019.5;;;12.61;59.56
23361;BME280;11852;50.082;18.554;2023-05-28T00:56:19;99025.0;;;12.64;59.64
23361;BME280;11852;50.082;18.554;2023-05-28T00:57:23;99018.5;;;12.64;59.73
23361;BME280;11852;50.082;18.554;2023-05-28T00:58:29;99021.0;;;12.6;59.75
23361;BME280;11852;50.082;18.554;2023-05-28T00:59:34;99017.0;;;12.5;59.54
23361;BME280;11852;50.082;18.554;2023-05-28T01:00:39;99015.0;;;12.53;59.38
23361;BME280;11852;50.082;18.554;2023-05-28T01:01:43;99013.5;;;12.56;59.54
23361;BME280;11852;50.082;18.554;2023-05-28T01:02:51;99015.5;;;12.51;59.71
23361;BME280;11852;50.082;18.554;2023-05-28T01:03:55;99013.0;;;12.47;59.63
23361;BME280;11852;50.082;18.554;2023-05-28T01:05:00;99011.5;;;12.49;59.46
23361;BME280;11852;50.082;18.554;2023-05-28T01:06:06;99008.5;;;12.48;59.69
23361;BME280;11852;50.082;18.554;2023-05-28T01:07:11;99008.5;;;12.48;59.61
23361;BME280;11852;50.082;18.554;2023-05-28T01:08:16;99010.0;;;12.46;59.7
23361;BME280;11852;50.082;18.554;2023-05-28T01:09:21;99006.0;;;12.48;59.71
23361;BME280;11852;50.082;18.554;2023-05-28T01:10:26;99005.5;;;12.44;59.83
23361;BME280;11852;50.082;18.554;2023-05-28T01:11:30;99005.0;;;12.37;60.03
23361;BME280;11852;50.082;18.554;2023-05-28T01:12:35;99006.5;;;12.28;59.74
23361;BME280;11852;50.082;18.554;2023-05-28T01:13:40;99006.5;;;12.33;59.47
23361;BME280;11852;50.082;18.554;2023-05-28T01:14:45;99004.0;;;12.35;59.47
23361;BME280;11852;50.082;18.554;2023-05-28T01:15:50;99000.5;;;12.35;59.39
23361;BME280;11852;50.082;18.554;2023-05-28T01:16:55;99001.0;;;12.27;59.54
23361;BME280;11852;50.082;18.554;2023-05-28T01:18:00;98998.5;;;12.27;59.65
23361;BME280;11852;50.082;18.554;2023-05-28T01:19:05;98997.5;;;12.31;59.49
23361;BME280;11852;50.082;18.554;2023-05-28T01:20:12;98997.0;;;12.31;59.61
23361;BME280;11852;50.082;18.554;2023-05-28T01:21:17;98996.5;;;12.32;59.89
23361;BME280;11852;50.082;18.554;2023-05-28T01:22:24;98993.0;;;12.24;60.04
23361;BME280;11852;50.082;18.554;2023-05-28T01:23:27;98995.0;;;12.22;60.11
23361;BME280;11852;50.082;18.554;2023-05-28T01:24:32;98995.0;;;12.2;60.11
23361;BME280;11852;50.082;18.554;2023-05-28T01:25:37;98994.5;;;12.18;60.15
23361;BME280;11852;50.082;18.554;2023-05-28T01:26:42;98993.5;;;12.23;59.9
23361;BME280;11852;50.082;18.554;2023-05-28T01:27:47;98995.0;;;12.25;59.92
23361;BME280;11852;50.082;18.554;2023-05-28T01:28:52;98999.5;;;12.26;59.86
23361;BME280;11852;50.082;18.554;2023-05-28T01:29:56;98999.0;;;12.26;59.95
23361;BME280;11852;50.082;18.554;2023-05-28T01:31:04;98995.0;;;12.23;59.8
23361;BME280;11852;50.082;18.554;2023-05-28T01:32:09;98995.0;;;12.16;59.99
23361;BME280;11852;50.082;18.554;2023-05-28T01:33:17;98993.5;;;12.2;59.81
23361;BME280;11852;50.082;18.554;2023-05-28T01:34:22;98994.0;;;12.19;59.85
23361;BME280;11852;50.082;18.554;2023-05-28T01:35:26;98988.5;;;12.18;59.94
23361;BME280;11852;50.082;18.554;2023-05-28T01:36:32;98991.0;;;12.17;60.13
23361;BME280;11852;50.082;18.554;2023-05-28T01:37:38;98989.5;;;12.09;60.46
23361;BME280;11852;50.082;18.554;2023-05-28T01:38:41;98992.0;;;12.06;60.38
23361;BME280;11852;50.082;18.554;2023-05-28T01:39:46;98991.0;;;12.05;60.44
23361;BME280;11852;50.082;18.554;2023-05-28T01:40:52;98992.51;;;12.07;60.13
23361;BME280;11852;50.082;18.554;2023-05-28T01:41:56;98994.5;;;12.07;60.06
23361;BME280;11852;50.082;18.554;2023-05-28T01:43:01;98992.51;;;12.03;59.99
23361;BME280;11852;50.082;18.554;2023-05-28T01:44:05;98994.0;;;12.04;59.89
23361;BME280;11852;50.082;18.554;2023-05-28T01:45:10;98994.49;;;12.01;59.88
23361;BME280;11852;50.082;18.554;2023-05-28T01:46:15;98994.0;;;12.01;59.86
23361;BME280;11852;50.082;18.554;2023-05-28T01:47:20;98990.5;;;12.05;59.77
23361;BME280;11852;50.082;18.554;2023-05-28T01:48:25;98993.5;;;11.98;59.84
23361;BME280;11852;50.082;18.554;2023-05-28T01:49:30;98993.01;;;11.98;59.67
23361;BME280;11852;50.082;18.554;2023-05-28T01:50:35;98992.5;;;11.95;59.62
23361;BME280;11852;50.082;18.554;2023-05-28T01:51:39;98990.5;;;11.98;59.5
23361;BME280;11852;50.082;18.554;2023-05-28T01:52:44;98988.0;;;11.99;59.5
23361;BME280;11852;50.082;18.554;2023-05-28T01:53:50;98989.0;;;11.96;59.69
23361;BME280;11852;50.082;18.554;2023-05-28T01:54:55;98989.5;;;11.97;59.63
23361;BME280;11852;50.082;18.554;2023-05-28T01:56:03;98991.5;;;11.94;59.54
23361;BME280;11852;50.082;18.554;2023-05-28T01:57:10;98991.0;;;11.89;59.54
23361;BME280;11852;50.082;18.554;2023-05-28T01:58:15;98989.0;;;11.9;59.4
23361;BME280;11852;50.082;18.554;2023-05-28T01:59:20;98987.0;;;11.91;59.44
23361;BME280;11852;50.082;18.554;2023-05-28T02:00:25;98987.5;;;11.89;59.51
23361;BME280;11852;50.082;18.554;2023-05-28T02:01:31;98989.0;;;11.92;59.29
23361;BME280;11852;50.082;18.554;2023-05-28T02:02:35;98986.5;;;11.9;59.24
23361;BME280;11852;50.082;18.554;2023-05-28T02:03:40;98984.5;;;11.91;59.26
23361;BME280;11852;50.082;18.554;2023-05-28T02:04:45;98986.5;;;11.9;59.21
23361;BME280;11852;50.082;18.554;2023-05-28T02:05:50;98986.5;;;11.78;59.6
23361;BME280;11852;50.082;18.554;2023-05-28T02:06:55;98985.0;;;11.82;59.49
23361;BME280;11852;50.082;18.554;2023-05-28T02:08:00;98987.5;;;11.82;59.51
23361;BME280;11852;50.082;18.554;2023-05-28T02:09:05;98986.5;;;11.81;59.55
23361;BME280;11852;50.082;18.554;2023-05-28T02:10:09;98984.0;;;11.8;59.52
23361;BME280;11852;50.082;18.554;2023-05-28T02:11:14;98987.5;;;11.81;59.69
23361;BME280;11852;50.082;18.554;2023-05-28T02:12:19;98985.0;;;11.82;59.56
23361;BME280;11852;50.082;18.554;2023-05-28T02:13:24;98986.0;;;11.83;59.63
23361;BME280;11852;50.082;18.554;2023-05-28T02:14:29;98984.5;;;11.82;59.57
23361;BME280;11852;50.082;18.554;2023-05-28T02:15:36;98981.5;;;11.85;59.53
23361;BME280;11852;50.082;18.554;2023-05-28T02:16:49;98980.0;;;11.85;59.68
23361;BME280;11852;50.082;18.554;2023-05-28T02:17:46;98977.0;;;11.86;59.81
23361;BME280;11852;50.082;18.554;2023-05-28T02:18:53;98977.0;;;11.84;59.83
23361;BME280;11852;50.082;18.554;2023-05-28T02:19:58;98977.0;;;11.78;59.87
23361;BME280;11852;50.082;18.554;2023-05-28T02:21:03;98975.0;;;11.83;59.79
23361;BME280;11852;50.082;18.554;2023-05-28T02:22:08;98975.0;;;11.83;59.72
23361;BME280;11852;50.082;18.554;2023-05-28T02:23:13;98978.5;;;11.84;59.83
23361;BME280;11852;50.082;18.554;2023-05-28T02:24:19;98978.0;;;11.77;59.69
23361;BME280;11852;50.082;18.554;2023-05-28T02:25:24;98977.5;;;11.81;59.75
23361;BME280;11852;50.082;18.554;2023-05-28T02:26:29;98978.5;;;11.76;59.99
23361;BME280;11852;50.082;18.554;2023-05-28T02:27:34;98979.0;;;11.78;60.0
23361;BME280;11852;50.082;18.554;2023-05-28T02:28:41;98979.51;;;11.8;59.89
23361;BME280;11852;50.082;18.554;2023-05-28T02:29:45;98982.5;;;11.81;59.69
23361;BME280;11852;50.082;18.554;2023-05-28T02:30:50;98982.99;;;11.77;59.67
23361;BME280;11852;50.082;18.554;2023-05-28T02:31:55;98983.0;;;11.77;59.82
23361;BME280;11852;50.082;18.554;2023-05-28T02:33:01;98983.0;;;11.78;59.68
23361;BME280;11852;50.082;18.554;2023-05-28T02:34:05;98984.0;;;11.79;59.88
23361;BME280;11852;50.082;18.554;2023-05-28T02:35:11;98982.0;;;11.77;60.05
23361;BME280;11852;50.082;18.554;2023-05-28T02:36:16;98985.0;;;11.76;60.19
23361;BME280;11852;50.082;18.554;2023-05-28T02:37:23;98985.5;;;11.72;60.19
23361;BME280;11852;50.082;18.554;2023-05-28T02:38:30;98984.5;;;11.7;60.33
23361;BME280;11852;50.082;18.554;2023-05-28T02:39:37;98981.0;;;11.66;60.49
23361;BME280;11852;50.082;18.554;2023-05-28T02:40:42;98980.5;;;11.64;60.87
23361;BME280;11852;50.082;18.554;2023-05-28T02:41:47;98982.99;;;11.64;61.06
23361;BME280;11852;50.082;18.554;2023-05-28T02:42:52;98981.0;;;11.6;61.03
23361;BME280;11852;50.082;18.554;2023-05-28T02:43:57;98983.5;;;11.59;61.25
23361;BME280;11852;50.082;18.554;2023-05-28T02:45:03;98986.5;;;11.56;61.49
23361;BME280;11852;50.082;18.554;2023-05-28T02:46:08;98986.5;;;11.53;61.71
23361;BME280;11852;50.082;18.554;2023-05-28T02:47:14;98990.0;;;11.49;61.94
23361;BME280;11852;50.082;18.554;2023-05-28T02:48:19;98988.0;;;11.47;62.06
23361;BME280;11852;50.082;18.554;2023-05-28T02:49:25;98988.0;;;11.44;62.17
23361;BME280;11852;50.082;18.554;2023-05-28T02:50:30;98988.5;;;11.41;62.07
23361;BME280;11852;50.082;18.554;2023-05-28T02:51:36;98985.0;;;11.36;61.78
23361;BME280;11852;50.082;18.554;2023-05-28T02:52:41;98984.0;;;11.34;61.86
23361;BME280;11852;50.082;18.554;2023-05-28T02:53:46;98981.5;;;11.35;61.74
23361;BME280;11852;50.082;18.554;2023-05-28T02:54:51;98982.99;;;11.33;61.84
23361;BME280;11852;50.082;18.554;2023-05-28T02:55:55;98985.0;;;11.31;61.69
23361;BME280;11852;50.082;18.554;2023-05-28T02:57:01;98983.5;;;11.33;61.61
23361;BME280;11852;50.082;18.554;2023-05-28T02:58:06;98982.99;;;11.33;61.55
23361;BME280;11852;50.082;18.554;2023-05-28T02:59:10;98982.5;;;11.33;61.36
23361;BME280;11852;50.082;18.554;2023-05-28T03:00:16;98981.0;;;11.31;61.38
23361;BME280;11852;50.082;18.554;2023-05-28T03:01:21;98979.51;;;11.25;61.22
23361;BME280;11852;50.082;18.554;2023-05-28T03:02:25;98979.0;;;11.29;61.06
23361;BME280;11852;50.082;18.554;2023-05-28T03:03:32;98985.0;;;11.27;60.95
23361;BME280;11852;50.082;18.554;2023-05-28T03:04:36;98982.99;;;11.3;60.85
23361;BME280;11852;50.082;18.554;2023-05-28T03:05:41;98983.5;;;11.27;60.74
23361;BME280;11852;50.082;18.554;2023-05-28T03:06:46;98983.5;;;11.24;60.74
23361;BME280;11852;50.082;18.554;2023-05-28T03:07:51;98978.0;;;11.26;60.66
23361;BME280;11852;50.082;18.554;2023-05-28T03:08:56;98981.0;;;11.2;61.06
23361;BME280;11852;50.082;18.554;2023-05-28T03:10:01;98979.51;;;11.18;61.0
23361;BME280;11852;50.082;18.554;2023-05-28T03:11:05;98979.0;;;11.22;60.61
23361;BME280;11852;50.082;18.554;2023-05-28T03:12:12;98977.5;;;11.2;60.64
23361;BME280;11852;50.082;18.554;2023-05-28T03:13:17;98980.0;;;11.22;60.5
23361;BME280;11852;50.082;18.554;2023-05-28T03:14:22;98978.0;;;11.16;60.4
23361;BME280;11852;50.082;18.554;2023-05-28T03:15:27;98980.51;;;11.09;60.58
23361;BME280;11852;50.082;18.554;2023-05-28T03:16:33;98978.5;;;11.09;60.4
23361;BME280;11852;50.082;18.554;2023-05-28T03:17:38;98974.0;;;11.13;60.37
23361;BME280;11852;50.082;18.554;2023-05-28T03:18:44;98974.0;;;11.15;60.49
23361;BME280;11852;50.082;18.554;2023-05-28T03:19:49;98970.5;;;11.12;60.17
23361;BME280;11852;50.082;18.554;2023-05-28T03:20:54;98970.0;;;11.14;59.9
23361;BME280;11852;50.082;18.554;2023-05-28T03:22:02;98969.49;;;11.15;59.81
23361;BME280;11852;50.082;18.554;2023-05-28T03:23:06;98970.49;;;11.17;59.76
23361;BME280;11852;50.082;18.554;2023-05-28T03:24:11;98970.5;;;11.06;60.13
23361;BME280;11852;50.082;18.554;2023-05-28T03:25:16;98974.5;;;11.1;59.88
23361;BME280;11852;50.082;18.554;2023-05-28T03:26:20;98970.49;;;11.13;59.65
23361;BME280;11852;50.082;18.554;2023-05-28T03:27:25;98970.0;;;11.06;59.81
23361;BME280;11852;50.082;18.554;2023-05-28T03:28:30;98968.5;;;11.05;59.65
23361;BME280;11852;50.082;18.554;2023-05-28T03:29:37;98971.5;;;11.1;59.35
23361;BME280;11852;50.082;18.554;2023-05-28T03:30:41;98971.0;;;11.12;59.47
23361;BME280;11852;50.082;18.554;2023-05-28T03:31:46;98968.5;;;11.19;59.29
23361;BME280;11852;50.082;18.554;2023-05-28T03:32:51;98969.0;;;11.22;59.11
23361;BME280;11852;50.082;18.554;2023-05-28T03:33:56;98968.5;;;11.24;59.24
23361;BME280;11852;50.082;18.554;2023-05-28T03:35:01;98968.0;;;11.26;59.19
23361;BME280;11852;50.082;18.554;2023-05-28T03:36:06;98967.51;;;11.29;59.42
23361;BME280;11852;50.082;18.554;2023-05-28T03:37:11;98969.0;;;11.3;59.44
23361;BME280;11852;50.082;18.554;2023-05-28T03:38:15;98968.5;;;11.24;59.4
23361;BME280;11852;50.082;18.554;2023-05-28T03:39:21;98968.5;;;11.22;59.48
23361;BME280;11852;50.082;18.554;2023-05-28T03:40:26;98969.99;;;11.18;59.63
23361;BME280;11852;50.082;18.554;2023-05-28T03:41:31;98967.01;;;11.19;59.46
23361;BME280;11852;50.082;18.554;2023-05-28T03:42:36;98970.49;;;11.24;59.28
23361;BME280;11852;50.082;18.554;2023-05-28T03:43:41;98969.0;;;11.25;59.24
23361;BME280;11852;50.082;18.554;2023-05-28T03:44:45;98969.99;;;11.26;59.49
23361;BME280;11852;50.082;18.554;2023-05-28T03:45:52;98968.0;;;11.28;59.56
23361;BME280;11852;50.082;18.554;2023-05-28T03:46:57;98969.49;;;11.31;59.57
23361;BME280;11852;50.082;18.554;2023-05-28T03:48:02;98970.49;;;11.34;59.33
23361;BME280;11852;50.082;18.554;2023-05-28T03:49:07;98971.5;;;11.36;58.86
23361;BME280;11852;50.082;18.554;2023-05-28T03:50:12;98971.0;;;11.34;58.67
23361;BME280;11852;50.082;18.554;2023-05-28T03:51:17;98973.0;;;11.31;58.77
23361;BME280;11852;50.082;18.554;2023-05-28T03:52:22;98975.0;;;11.37;58.72
23361;BME280;11852;50.082;18.554;2023-05-28T03:53:28;98974.5;;;11.39;58.69
23361;BME280;11852;50.082;18.554;2023-05-28T03:54:32;98973.5;;;11.32;58.74
23361;BME280;11852;50.082;18.554;2023-05-28T03:55:37;98974.5;;;11.34;58.57
23361;BME280;11852;50.082;18.554;2023-05-28T03:56:42;98973.0;;;11.29;58.6
23361;BME280;11852;50.082;18.554;2023-05-28T03:57:47;98974.0;;;11.36;58.56
23361;BME280;11852;50.082;18.554;2023-05-28T03:58:52;98976.0;;;11.39;58.69
23361;BME280;11852;50.082;18.554;2023-05-28T03:59:57;98973.5;;;11.38;58.71
23361;BME280;11852;50.082;18.554;2023-05-28T04:01:01;98973.5;;;11.4;58.63
23361;BME280;11852;50.082;18.554;2023-05-28T04:02:06;98972.0;;;11.43;58.6
23361;BME280;11852;50.082;18.554;2023-05-28T04:03:12;98974.0;;;11.43;58.48
23361;BME280;11852;50.082;18.554;2023-05-28T04:04:18;98973.5;;;11.46;58.38
23361;BME280;11852;50.082;18.554;2023-05-28T04:05:22;98972.5;;;11.51;58.23
23361;BME280;11852;50.082;18.554;2023-05-28T04:06:27;98974.0;;;11.33;58.58
23361;BME280;11852;50.082;18.554;2023-05-28T04:07:32;98974.0;;;11.4;58.42
23361;BME280;11852;50.082;18.554;2023-05-28T04:08:36;98973.5;;;11.42;58.44
23361;BME280;11852;50.082;18.554;2023-05-28T04:09:41;98976.0;;;11.48;58.31
23361;BME280;11852;50.082;18.554;2023-05-28T04:10:47;98975.5;;;11.58;58.16
23361;BME280;11852;50.082;18.554;2023-05-28T04:11:52;98975.0;;;11.63;58.47
23361;BME280;11852;50.082;18.554;2023-05-28T04:12:58;98979.5;;;11.63;58.49
23361;BME280;11852;50.082;18.554;2023-05-28T04:14:03;98981.0;;;11.66;58.16
23361;BME280;11852;50.082;18.554;2023-05-28T04:15:09;98980.0;;;11.65;58.35
23361;BME280;11852;50.082;18.554;2023-05-28T04:16:14;98981.99;;;11.63;58.49
23361;BME280;11852;50.082;18.554;2023-05-28T04:17:18;98981.5;;;11.64;58.22
23361;BME280;11852;50.082;18.554;2023-05-28T04:18:23;98981.99;;;11.49;58.85
23361;BME280;11852;50.082;18.554;2023-05-28T04:19:28;98981.5;;;11.59;58.45
23361;BME280;11852;50.082;18.554;2023-05-28T04:20:34;98981.0;;;11.63;58.28
23361;BME280;11852;50.082;18.554;2023-05-28T04:21:40;98979.51;;;11.66;58.19
23361;BME280;11852;50.082;18.554;2023-05-28T04:22:45;98981.5;;;11.66;58.33
23361;BME280;11852;50.082;18.554;2023-05-28T04:23:50;98977.0;;;11.73;58.37
23361;BME280;11852;50.082;18.554;2023-05-28T04:24:55;98978.0;;;11.61;58.8
23361;BME280;11852;50.082;18.554;2023-05-28T04:26:01;98981.0;;;11.7;58.27
23361;BME280;11852;50.082;18.554;2023-05-28T04:27:06;98979.5;;;11.7;58.03
23361;BME280;11852;50.082;18.554;2023-05-28T04:28:11;98983.5;;;11.74;57.96
23361;BME280;11852;50.082;18.554;2023-05-28T04:29:15;98984.0;;;11.79;58.14
23361;BME280;11852;50.082;18.554;2023-05-28T04:30:21;98982.5;;;11.81;58.31
23361;BME280;11852;50.082;18.554;2023-05-28T04:31:26;98982.0;;;11.81;58.57
23361;BME280;11852;50.082;18.554;2023-05-28T04:32:32;98980.0;;;11.79;58.51
23361;BME280;11852;50.082;18.554;2023-05-28T04:33:36;98981.0;;;11.8;58.53
23361;BME280;11852;50.082;18.554;2023-05-28T04:34:42;98977.5;;;11.81;58.11
23361;BME280;11852;50.082;18.554;2023-05-28T04:35:47;98978.0;;;11.76;57.72
23361;BME280;11852;50.082;18.554;2023-05-28T04:36:52;98974.5;;;11.84;57.63
23361;BME280;11852;50.082;18.554;2023-05-28T04:37:56;98975.0;;;11.91;57.54
23361;BME280;11852;50.082;18.554;2023-05-28T04:39:01;98973.0;;;11.99;57.57
23361;BME280;11852;50.082;18.554;2023-05-28T04:40:07;98976.0;;;12.0;57.56
23361;BME280;11852;50.082;18.554;2023-05-28T04:41:12;98974.0;;;12.1;57.38
23361;BME280;11852;50.082;18.554;2023-05-28T04:42:17;98971.5;;;12.08;57.59
23361;BME280;11852;50.082;18.554;2023-05-28T04:43:22;98970.5;;;12.07;57.57
23361;BME280;11852;50.082;18.554;2023-05-28T04:44:26;98973.0;;;11.98;58.22
23361;BME280;11852;50.082;18.554;2023-05-28T04:45:32;98971.5;;;12.07;57.63
23361;BME280;11852;50.082;18.554;2023-05-28T04:46:38;98969.99;;;12.15;57.55
23361;BME280;11852;50.082;18.554;2023-05-28T04:47:42;98972.5;;;12.21;57.63
23361;BME280;11852;50.082;18.554;2023-05-28T04:48:47;98970.5;;;12.15;57.76
23361;BME280;11852;50.082;18.554;2023-05-28T04:49:51;98972.5;;;12.25;57.35
23361;BME280;11852;50.082;18.554;2023-05-28T04:50:56;98970.0;;;12.26;57.44
23361;BME280;11852;50.082;18.554;2023-05-28T04:52:01;98970.5;;;12.32;57.3
23361;BME280;11852;50.082;18.554;2023-05-28T04:53:05;98967.51;;;12.39;57.41
23361;BME280;11852;50.082;18.554;2023-05-28T04:54:10;98967.01;;;12.39;57.53
23361;BME280;11852;50.082;18.554;2023-05-28T04:55:15;98966.5;;;12.4;57.47
23361;BME280;11852;50.082;18.554;2023-05-28T04:56:21;98967.01;;;12.39;57.15
23361;BME280;11852;50.082;18.554;2023-05-28T04:57:26;98965.0;;;12.42;57.21
23361;BME280;11852;50.082;18.554;2023-05-28T04:58:31;98967.01;;;12.43;57.17
23361;BME280;11852;50.082;18.554;2023-05-28T04:59:35;98968.5;;;12.36;56.84
23361;BME280;11852;50.082;18.554;2023-05-28T05:00:41;98968.01;;;12.44;56.39
23361;BME280;11852;50.082;18.554;2023-05-28T05:01:46;98969.5;;;12.46;56.17
23361;BME280;11852;50.082;18.554;2023-05-28T05:02:50;98967.5;;;12.55;56.0
23361;BME280;11852;50.082;18.554;2023-05-28T05:03:55;98969.99;;;12.56;55.85
23361;BME280;11852;50.082;18.554;2023-05-28T05:05:05;98976.0;;;12.6;55.63
23361;BME280;11852;50.082;18.554;2023-05-28T05:06:10;98971.5;;;12.68;55.39
23361;BME280;11852;50.082;18.554;2023-05-28T05:07:15;98973.5;;;12.68;55.96
23361;BME280;11852;50.082;18.554;2023-05-28T05:08:19;98976.0;;;12.7;55.94
23361;BME280;11852;50.082;18.554;2023-05-28T05:09:24;98976.5;;;12.77;55.67
23361;BME280;11852;50.082;18.554;2023-05-28T05:10:29;98975.5;;;12.77;55.8
23361;BME280;11852;50.082;18.554;2023-05-28T05:11:34;98976.0;;;12.73;55.42
23361;BME280;11852;50.082;18.554;2023-05-28T05:12:39;98974.0;;;12.77;55.17
23361;BME280;11852;50.082;18.554;2023-05-28T05:13:43;98975.5;;;12.84;54.59
23361;BME280;11852;50.082;18.554;2023-05-28T05:14:48;98974.5;;;12.87;54.9
23361;BME280;11852;50.082;18.554;2023-05-28T05:15:54;98974.0;;;12.92;54.91
23361;BME280;11852;50.082;18.554;2023-05-28T05:16:58;98975.5;;;13.02;54.97
23361;BME280;11852;50.082;18.554;2023-05-28T05:18:03;98975.0;;;13.07;55.38
23361;BME280;11852;50.082;18.554;2023-05-28T05:19:08;98977.0;;;13.09;55.25
23361;BME280;11852;50.082;18.554;2023-05-28T05:20:13;98979.51;;;13.11;54.86
23361;BME280;11852;50.082;18.554;2023-05-28T05:21:17;98978.0;;;13.13;54.92
23361;BME280;11852;50.082;18.554;2023-05-28T05:22:22;98978.5;;;13.14;55.19
23361;BME280;11852;50.082;18.554;2023-05-28T05:23:28;98982.5;;;13.22;54.7
23361;BME280;11852;50.082;18.554;2023-05-28T05:24:33;98978.0;;;13.21;54.85
23361;BME280;11852;50.082;18.554;2023-05-28T05:25:37;98985.0;;;13.15;54.71
23361;BME280;11852;50.082;18.554;2023-05-28T05:26:42;98983.0;;;13.23;54.69
23361;BME280;11852;50.082;18.554;2023-05-28T05:27:50;98987.5;;;13.24;54.15
23361;BME280;11852;50.082;18.554;2023-05-28T05:28:54;98987.0;;;13.22;54.48
23361;BME280;11852;50.082;18.554;2023-05-28T05:29:59;98984.5;;;13.26;54.13
23361;BME280;11852;50.082;18.554;2023-05-28T05:31:04;98982.5;;;13.3;54.13
23361;BME280;11852;50.082;18.554;2023-05-28T05:32:10;98983.0;;;13.35;53.99
23361;BME280;11852;50.082;18.554;2023-05-28T05:33:14;98980.5;;;13.39;54.03
23361;BME280;11852;50.082;18.554;2023-05-28T05:34:19;98983.0;;;13.49;54.15
23361;BME280;11852;50.082;18.554;2023-05-28T05:35:25;98979.0;;;13.55;54.47
23361;BME280;11852;50.082;18.554;2023-05-28T05:36:30;98978.5;;;13.47;54.92
23361;BME280;11852;50.082;18.554;2023-05-28T05:37:34;98975.5;;;13.34;54.44
23361;BME280;11852;50.082;18.554;2023-05-28T05:38:39;98975.0;;;13.45;54.0
23361;BME280;11852;50.082;18.554;2023-05-28T05:39:44;98972.0;;;13.48;54.37
23361;BME280;11852;50.082;18.554;2023-05-28T05:40:49;98971.5;;;13.42;53.69
23361;BME280;11852;50.082;18.554;2023-05-28T05:41:54;98974.0;;;13.53;53.47
23361;BME280;11852;50.082;18.554;2023-05-28T05:43:00;98971.5;;;13.63;53.69
23361;BME280;11852;50.082;18.554;2023-05-28T05:44:06;98973.5;;;13.64;53.95
23361;BME280;11852;50.082;18.554;2023-05-28T05:45:11;98972.5;;;13.6;53.99